Home > Products > Valid Products > TAF

000
FTUS44 KSJT 310520
TAFABI
TAF
KABI 310520Z 3106/0106 VRB06KT P6SM SKC=



000
FTUS44 KSJT 310520
TAFABI
TAF
KABI 310520Z 3106/0106 VRB06KT P6SM SKC=



000
FTUS44 KSJT 310520
TAFSJT
TAF
KSJT 310520Z 3106/0106 VRB06KT P6SM SKC=



000
FTUS44 KSJT 310520
TAFJCT
TAF
KJCT 310520Z 3106/0106 VRB06KT P6SM SKC=



000
FTUS44 KSJT 310520
TAFJCT
TAF
KJCT 310520Z 3106/0106 VRB06KT P6SM SKC=



000
FTUS44 KSJT 310520
TAFSJT
TAF
KSJT 310520Z 3106/0106 VRB06KT P6SM SKC=



000
FTUS44 KSJT 302341
TAFABI
TAF
KABI 302341Z 3100/3124 VRB06KT P6SM SKC=



000
FTUS44 KSJT 302341
TAFSJT
TAF
KSJT 302341Z 3100/3124 VRB06KT P6SM SKC=



000
FTUS44 KSJT 302341
TAFJCT
TAF
KJCT 302341Z 3100/3124 VRB06KT P6SM SKC=



000
FTUS44 KSJT 301729
TAFSJT
TAF
KSJT 301729Z 3018/3118 09008KT P6SM SCT090
     FM310600 20006KT P6SM FEW150=



000
FTUS44 KSJT 301729
TAFJCT
TAF
KJCT 301729Z 3018/3118 12008KT P6SM SCT080
     FM310500 VRB03KT P6SM SKC=



000
FTUS44 KSJT 301729
TAFABI
TAF
KABI 301729Z 3018/3118 VRB04KT P6SM FEW070
     FM301900 11008KT P6SM SCT080
     FM310700 VRB05KT P6SM FEW150=



000
FTUS44 KSJT 301120
TAFSJT
TAF
KSJT 301120Z 3012/3112 VRB06KT P6SM SKC=



000
FTUS44 KSJT 301120
TAFJCT
TAF
KJCT 301120Z 3012/3112 VRB05KT P6SM SKC=



000
FTUS44 KSJT 301120
TAFABI
TAF
KABI 301120Z 3012/3112 VRB06KT P6SM SKC=



000
FTUS44 KSJT 300520
TAFSJT
TAF
KSJT 300520Z 3006/3106 VRB06KT P6SM SKC=



000
FTUS44 KSJT 300520
TAFJCT
TAF
KJCT 300520Z 3006/3106 VRB06KT P6SM SKC=



000
FTUS44 KSJT 300520
TAFABI
TAF
KABI 300520Z 3006/3106 VRB06KT P6SM SKC=



000
FTUS44 KSJT 300520
TAFSJT
TAF
KSJT 300520Z 3006/3106 VRB06KT P6SM SKC=



000
FTUS44 KSJT 300520
TAFJCT
TAF
KJCT 300520Z 3006/3106 VRB06KT P6SM SKC=



000
FTUS44 KSJT 300520
TAFABI
TAF
KABI 300520Z 3006/3106 VRB06KT P6SM SKC=



000
FTUS44 KSJT 292339
TAFSJT
TAF
KSJT 292339Z 3000/3024 13008KT P6SM FEW070
     FM300400 17008KT P6SM SKC
     FM301500 21006KT P6SM FEW100=



000
FTUS44 KSJT 292339
TAFABI
TAF
KABI 292339Z 3000/3024 13008KT P6SM OVC080
     FM300500 17008KT P6SM SKC
     FM301400 22007KT P6SM SCT100=



000
FTUS44 KSJT 292339
TAFJCT
TAF
KJCT 292339Z 3000/3024 14009KT P6SM FEW070
     FM301500 23006KT P6SM SKC=



000
FTUS44 KSJT 291725
TAFSJT
TAF
KSJT 291725Z 2918/3018 VRB04KT P6SM FEW070
     FM291900 12007KT P6SM SCT090
     FM300400 17008KT P6SM SKC
     FM301500 21006KT P6SM FEW100=



000
FTUS44 KSJT 291725
TAFABI
TAF
KABI 291725Z 2918/3018 13008KT P6SM SCT080
     FM300500 17008KT P6SM FEW120
     FM301400 22007KT P6SM SCT100=



000
FTUS44 KSJT 291725
TAFJCT
TAF
KJCT 291725Z 2918/3018 14009KT P6SM FEW070
     FM301500 23006KT P6SM SKC=



000
FTUS44 KSJT 291725
TAFSJT
TAF
KSJT 291725Z 2918/3018 VRB04KT P6SM FEW070
     FM291900 12007KT P6SM SCT090
     FM300400 17008KT P6SM SKC
     FM301500 21006KT P6SM FEW100=



000
FTUS44 KSJT 291725
TAFABI
TAF
KABI 291725Z 2918/3018 13008KT P6SM SCT080
     FM300500 17008KT P6SM FEW120
     FM301400 22007KT P6SM SCT100=



000
FTUS44 KSJT 291725
TAFJCT
TAF
KJCT 291725Z 2918/3018 14009KT P6SM FEW070
     FM301500 23006KT P6SM SKC=



000
FTUS44 KSJT 291120
TAFABI
TAF
KABI 291120Z 2912/3012 16010KT P6SM SKC=



000
FTUS44 KSJT 291120
TAFABI
TAF
KABI 291120Z 2912/3012 16010KT P6SM SKC=



000
FTUS44 KSJT 291120
TAFSJT
TAF
KSJT 291120Z 2912/3012 17008KT P6SM SKC=



000
FTUS44 KSJT 291120
TAFJCT
TAF
KJCT 291120Z 2912/3012 15008KT P6SM SKC=



000
FTUS44 KSJT 291120
TAFSJT
TAF
KSJT 291120Z 2912/3012 17008KT P6SM SKC=



000
FTUS44 KSJT 291120
TAFJCT
TAF
KJCT 291120Z 2912/3012 15008KT P6SM SKC=



000
FTUS44 KSJT 290520
TAFJCT
TAF
KJCT 290520Z 2906/3006 15007KT P6SM SKC=



000
FTUS44 KSJT 290520
TAFABI
TAF
KABI 290520Z 2906/3006 14010KT P6SM SKC=



000
FTUS44 KSJT 290520
TAFSJT
TAF
KSJT 290520Z 2906/3006 16008KT P6SM SKC=



000
FTUS44 KSJT 282320
TAFJCT
TAF
KJCT 282320Z 2900/2924 15007KT P6SM SKC=



000
FTUS44 KSJT 282320
TAFJCT
TAF
KJCT 282320Z 2900/2924 15007KT P6SM SKC=



000
FTUS44 KSJT 282320
TAFSJT
TAF
KSJT 282320Z 2900/2924 16008KT P6SM SKC=



000
FTUS44 KSJT 282320
TAFABI
TAF
KABI 282320Z 2900/2924 14010KT P6SM SKC=



000
FTUS44 KSJT 282320
TAFSJT
TAF
KSJT 282320Z 2900/2924 16008KT P6SM SKC=



000
FTUS44 KSJT 282320
TAFABI
TAF
KABI 282320Z 2900/2924 14010KT P6SM SKC=



000
FTUS44 KSJT 282253 AAA
TAFJCT
TAF AMD
KJCT 282253Z 2823/2918 15008KT P6SM SKC
     FM290000 15009KT P6SM SKC=



000
FTUS44 KSJT 282253 AAA
TAFJCT
TAF AMD
KJCT 282253Z 2823/2918 15008KT P6SM SKC
     FM290000 15009KT P6SM SKC=



000
FTUS44 KSJT 282252 AAB
TAFSJT
TAF AMD
KSJT 282252Z 2823/2918 12010KT P6SM SKC
     FM290000 16009KT P6SM SKC=



000
FTUS44 KSJT 282039 AAA
TAFSJT
TAF AMD
KSJT 282039Z 2821/2918 16010G15KT P6SM SKC
     FM290000 16009KT P6SM SKC=



000
FTUS44 KSJT 281722
TAFABI
TAF
KABI 281722Z 2818/2918 15011G17KT P6SM SKC
     FM290000 15009KT P6SM SKC=



000
FTUS44 KSJT 281722
TAFJCT
TAF
KJCT 281722Z 2818/2918 17008KT P6SM SKC
     FM281900 16011G17KT P6SM SKC
     FM290000 15009KT P6SM SKC=



000
FTUS44 KSJT 281722
TAFSJT
TAF
KSJT 281722Z 2818/2918 16010G17KT P6SM SKC
     FM290000 16009KT P6SM SKC=



000
FTUS44 KSJT 281200 AAB
TAFJCT
TAF AMD
KJCT 281256Z 2813/2912 16007KT P6SM OVC019
     FM281500 17007KT P6SM SKC
     FM281900 16010G17KT P6SM SKC
     FM290200 15008KT P6SM SKC=



000
FTUS44 KSJT 281200 AAB
TAFJCT
TAF AMD
KJCT 281256Z 2813/2912 16007KT P6SM OVC019
     FM281500 17007KT P6SM SKC
     FM281900 16010G17KT P6SM SKC
     FM290200 15008KT P6SM SKC=



000
FTUS44 KSJT 281200 AAA
TAFJCT
TAF AMD
KJCT 281224Z 2812/2912 16007KT P6SM OVC020
     FM281400 17007KT P6SM SKC
     FM281900 16010G17KT P6SM SKC
     FM290200 15008KT P6SM SKC=



000
FTUS44 KSJT 281200 AAA
TAFJCT
TAF AMD
KJCT 281224Z 2812/2912 16007KT P6SM OVC020
     FM281400 17007KT P6SM SKC
     FM281900 16010G17KT P6SM SKC
     FM290200 15008KT P6SM SKC=



000
FTUS44 KSJT 281100
TAFJCT
TAF
KJCT 281120Z 2812/2912 17007KT P6SM SKC
     FM281900 16010G17KT P6SM SKC
     FM290200 15008KT P6SM SKC=



000
FTUS44 KSJT 281100
TAFABI
TAF
KABI 281120Z 2812/2912 18010KT P6SM SKC
     FM281800 16010G17KT P6SM SKC
     FM290000 15010KT P6SM SKC=



000
FTUS44 KSJT 281100
TAFSJT
TAF
KSJT 281120Z 2812/2912 18009KT P6SM SKC
     FM281700 16009G16KT P6SM SKC
     FM290000 16009KT P6SM SKC=



000
FTUS44 KSJT 280900 AAA
TAFJCT
TAF AMD
KJCT 280910Z 2809/2906 14005KT P6SM BKN015
     FM281500 17009KT P6SM SKC
     FM281700 16011G18KT P6SM SKC
     FM290200 14011KT P6SM SKC=



    US Dept of Commerce
    National Oceanic and Atmospheric Administration
    National Weather Service
    1325 East West Highway
    Silver Spring, MD 20910
    Page Author: NWS Internet Services Team
Disclaimer
Information Quality
Credits
Glossary
Privacy Policy
Freedom of Information Act (FOIA)
About Us
Career Opportunities